sensor_id;sensor_type;location;lat;lon;timestamp;temperature;humidity
17619;DHT22;8928;51.678;6.074;2023-04-25T00:01:33;4.50;99.90
17619;DHT22;8928;51.678;6.074;2023-04-25T00:04:21;4.70;99.90
17619;DHT22;8928;51.678;6.074;2023-04-25T00:07:10;4.80;99.90
17619;DHT22;8928;51.678;6.074;2023-04-25T00:09:57;4.90;99.90
17619;DHT22;8928;51.678;6.074;2023-04-25T00:12:44;5.10;99.90
17619;DHT22;8928;51.678;6.074;2023-04-25T00:15:31;5.10;99.90
17619;DHT22;8928;51.678;6.074;2023-04-25T00:18:19;5.30;99.90
17619;DHT22;8928;51.678;6.074;2023-04-25T00:21:06;5.30;99.90
17619;DHT22;8928;51.678;6.074;2023-04-25T00:23:54;5.40;99.90
17619;DHT22;8928;51.678;6.074;2023-04-25T00:26:41;5.50;99.90
17619;DHT22;8928;51.678;6.074;2023-04-25T00:29:28;5.50;99.90
17619;DHT22;8928;51.678;6.074;2023-04-25T00:32:15;5.60;99.90
17619;DHT22;8928;51.678;6.074;2023-04-25T00:35:03;5.60;99.90
17619;DHT22;8928;51.678;6.074;2023-04-25T00:37:50;5.70;99.90
17619;DHT22;8928;51.678;6.074;2023-04-25T00:40:38;5.70;99.90
17619;DHT22;8928;51.678;6.074;2023-04-25T00:43:26;5.80;99.90
17619;DHT22;8928;51.678;6.074;2023-04-25T00:46:13;5.80;99.90
17619;DHT22;8928;51.678;6.074;2023-04-25T00:49:00;5.80;99.90
17619;DHT22;8928;51.678;6.074;2023-04-25T00:51:48;5.70;99.90
17619;DHT22;8928;51.678;6.074;2023-04-25T00:54:35;5.70;99.90
17619;DHT22;8928;51.678;6.074;2023-04-25T00:57:23;5.60;99.90
17619;DHT22;8928;51.678;6.074;2023-04-25T01:00:12;5.50;99.90
17619;DHT22;8928;51.678;6.074;2023-04-25T01:03:00;5.50;99.90
17619;DHT22;8928;51.678;6.074;2023-04-25T01:05:48;5.40;99.90
17619;DHT22;8928;51.678;6.074;2023-04-25T01:08:36;5.40;99.90
17619;DHT22;8928;51.678;6.074;2023-04-25T01:11:24;5.40;99.90
17619;DHT22;8928;51.678;6.074;2023-04-25T01:14:12;5.40;99.90
17619;DHT22;8928;51.678;6.074;2023-04-25T01:16:59;5.50;99.90
17619;DHT22;8928;51.678;6.074;2023-04-25T01:19:46;5.50;99.90
17619;DHT22;8928;51.678;6.074;2023-04-25T01:22:36;5.50;99.90
17619;DHT22;8928;51.678;6.074;2023-04-25T01:25:23;5.50;99.90
17619;DHT22;8928;51.678;6.074;2023-04-25T01:28:10;5.50;99.90
17619;DHT22;8928;51.678;6.074;2023-04-25T01:30:58;5.50;99.90
17619;DHT22;8928;51.678;6.074;2023-04-25T01:33:45;5.40;99.90
17619;DHT22;8928;51.678;6.074;2023-04-25T01:36:33;5.30;99.90
17619;DHT22;8928;51.678;6.074;2023-04-25T01:39:22;5.20;99.90
17619;DHT22;8928;51.678;6.074;2023-04-25T01:42:09;5.20;99.90
17619;DHT22;8928;51.678;6.074;2023-04-25T01:44:56;5.10;99.90
17619;DHT22;8928;51.678;6.074;2023-04-25T01:47:44;5.10;99.90
17619;DHT22;8928;51.678;6.074;2023-04-25T01:50:34;5.10;99.90
17619;DHT22;8928;51.678;6.074;2023-04-25T01:53:22;5.10;99.90
17619;DHT22;8928;51.678;6.074;2023-04-25T01:56:10;5.00;99.90
17619;DHT22;8928;51.678;6.074;2023-04-25T01:58:58;5.00;99.90
17619;DHT22;8928;51.678;6.074;2023-04-25T02:01:45;5.00;99.90
17619;DHT22;8928;51.678;6.074;2023-04-25T02:04:32;5.00;99.90
17619;DHT22;8928;51.678;6.074;2023-04-25T02:07:19;5.00;99.90
17619;DHT22;8928;51.678;6.074;2023-04-25T02:10:07;4.90;99.90
17619;DHT22;8928;51.678;6.074;2023-04-25T02:12:56;4.80;99.90
17619;DHT22;8928;51.678;6.074;2023-04-25T02:15:44;4.80;99.90
17619;DHT22;8928;51.678;6.074;2023-04-25T02:18:31;4.70;99.90
17619;DHT22;8928;51.678;6.074;2023-04-25T02:21:18;4.70;99.90
17619;DHT22;8928;51.678;6.074;2023-04-25T02:24:06;4.70;99.90
17619;DHT22;8928;51.678;6.074;2023-04-25T02:26:53;4.70;99.90
17619;DHT22;8928;51.678;6.074;2023-04-25T02:29:42;4.70;99.90
17619;DHT22;8928;51.678;6.074;2023-04-25T02:32:29;4.70;99.90
17619;DHT22;8928;51.678;6.074;2023-04-25T02:35:17;4.60;99.90
17619;DHT22;8928;51.678;6.074;2023-04-25T02:38:04;4.60;99.90
17619;DHT22;8928;51.678;6.074;2023-04-25T02:40:51;4.50;99.90
17619;DHT22;8928;51.678;6.074;2023-04-25T02:43:38;4.40;99.90
17619;DHT22;8928;51.678;6.074;2023-04-25T02:46:26;4.40;99.90
17619;DHT22;8928;51.678;6.074;2023-04-25T02:49:13;4.40;99.90
17619;DHT22;8928;51.678;6.074;2023-04-25T02:52:00;4.40;99.90
17619;DHT22;8928;51.678;6.074;2023-04-25T02:54:47;4.30;99.90
17619;DHT22;8928;51.678;6.074;2023-04-25T02:57:35;4.30;99.90
17619;DHT22;8928;51.678;6.074;2023-04-25T03:00:22;4.20;99.90
17619;DHT22;8928;51.678;6.074;2023-04-25T03:03:10;4.10;99.90
17619;DHT22;8928;51.678;6.074;2023-04-25T03:05:57;4.10;99.90
17619;DHT22;8928;51.678;6.074;2023-04-25T03:08:44;4.00;99.90
17619;DHT22;8928;51.678;6.074;2023-04-25T03:11:31;3.90;99.90
17619;DHT22;8928;51.678;6.074;2023-04-25T03:14:18;3.80;99.90
17619;DHT22;8928;51.678;6.074;2023-04-25T03:17:05;3.80;99.90
17619;DHT22;8928;51.678;6.074;2023-04-25T03:19:54;3.70;99.90
17619;DHT22;8928;51.678;6.074;2023-04-25T03:22:41;3.70;99.90
17619;DHT22;8928;51.678;6.074;2023-04-25T03:25:28;3.60;99.90
17619;DHT22;8928;51.678;6.074;2023-04-25T03:28:15;3.70;99.90
17619;DHT22;8928;51.678;6.074;2023-04-25T03:31:02;3.60;99.90
17619;DHT22;8928;51.678;6.074;2023-04-25T03:33:49;3.60;99.90
17619;DHT22;8928;51.678;6.074;2023-04-25T03:36:37;3.60;99.90
17619;DHT22;8928;51.678;6.074;2023-04-25T03:39:24;3.60;99.90
17619;DHT22;8928;51.678;6.074;2023-04-25T03:42:11;3.50;99.90
17619;DHT22;8928;51.678;6.074;2023-04-25T03:44:58;3.50;99.90
17619;DHT22;8928;51.678;6.074;2023-04-25T03:47:46;3.50;99.90
17619;DHT22;8928;51.678;6.074;2023-04-25T03:50:33;3.40;99.90
17619;DHT22;8928;51.678;6.074;2023-04-25T03:53:21;3.40;99.90
17619;DHT22;8928;51.678;6.074;2023-04-25T03:56:08;3.40;99.90
17619;DHT22;8928;51.678;6.074;2023-04-25T03:58:55;3.30;99.90
17619;DHT22;8928;51.678;6.074;2023-04-25T04:01:42;3.30;99.90
17619;DHT22;8928;51.678;6.074;2023-04-25T04:04:29;3.30;99.90
17619;DHT22;8928;51.678;6.074;2023-04-25T04:07:16;3.30;99.90
17619;DHT22;8928;51.678;6.074;2023-04-25T04:10:06;3.30;99.90
17619;DHT22;8928;51.678;6.074;2023-04-25T04:12:53;3.30;99.90
17619;DHT22;8928;51.678;6.074;2023-04-25T04:15:40;3.30;99.90
17619;DHT22;8928;51.678;6.074;2023-04-25T04:18:27;3.40;99.90
17619;DHT22;8928;51.678;6.074;2023-04-25T04:21:14;3.40;99.90
17619;DHT22;8928;51.678;6.074;2023-04-25T04:24:01;3.40;99.90
17619;DHT22;8928;51.678;6.074;2023-04-25T04:26:50;3.40;99.90
17619;DHT22;8928;51.678;6.074;2023-04-25T04:29:37;3.50;99.90
17619;DHT22;8928;51.678;6.074;2023-04-25T04:32:24;3.60;99.90
17619;DHT22;8928;51.678;6.074;2023-04-25T04:35:13;3.60;99.90
17619;DHT22;8928;51.678;6.074;2023-04-25T04:38:00;3.70;99.90
17619;DHT22;8928;51.678;6.074;2023-04-25T04:40:47;3.70;99.90
17619;DHT22;8928;51.678;6.074;2023-04-25T04:43:36;3.70;99.90
17619;DHT22;8928;51.678;6.074;2023-04-25T04:46:25;3.80;99.90
17619;DHT22;8928;51.678;6.074;2023-04-25T04:49:13;3.80;99.90
17619;DHT22;8928;51.678;6.074;2023-04-25T04:52:00;3.80;99.90
17619;DHT22;8928;51.678;6.074;2023-04-25T04:54:47;3.80;99.90
17619;DHT22;8928;51.678;6.074;2023-04-25T04:57:34;3.80;99.90
17619;DHT22;8928;51.678;6.074;2023-04-25T05:00:24;3.70;99.90
17619;DHT22;8928;51.678;6.074;2023-04-25T05:03:11;3.70;99.90
17619;DHT22;8928;51.678;6.074;2023-04-25T05:05:58;3.70;99.90
17619;DHT22;8928;51.678;6.074;2023-04-25T05:08:45;3.70;99.90
17619;DHT22;8928;51.678;6.074;2023-04-25T05:11:32;3.70;99.90
17619;DHT22;8928;51.678;6.074;2023-04-25T05:14:20;3.60;99.90
17619;DHT22;8928;51.678;6.074;2023-04-25T05:17:08;3.60;99.90
17619;DHT22;8928;51.678;6.074;2023-04-25T05:19:56;3.70;99.90
17619;DHT22;8928;51.678;6.074;2023-04-25T05:22:43;3.80;99.90
17619;DHT22;8928;51.678;6.074;2023-04-25T05:25:30;4.00;99.90
17619;DHT22;8928;51.678;6.074;2023-04-25T05:28:17;4.10;99.90
17619;DHT22;8928;51.678;6.074;2023-04-25T05:31:04;4.20;99.90
17619;DHT22;8928;51.678;6.074;2023-04-25T05:33:52;4.40;99.90
17619;DHT22;8928;51.678;6.074;2023-04-25T05:36:39;4.50;99.90
17619;DHT22;8928;51.678;6.074;2023-04-25T05:39:26;4.60;99.90
17619;DHT22;8928;51.678;6.074;2023-04-25T05:42:13;4.70;99.90
17619;DHT22;8928;51.678;6.074;2023-04-25T05:45:00;4.80;99.90
17619;DHT22;8928;51.678;6.074;2023-04-25T05:47:47;4.90;99.90
17619;DHT22;8928;51.678;6.074;2023-04-25T05:50:36;5.00;99.90
17619;DHT22;8928;51.678;6.074;2023-04-25T05:53:23;5.10;99.90
17619;DHT22;8928;51.678;6.074;2023-04-25T05:56:10;5.20;99.90
17619;DHT22;8928;51.678;6.074;2023-04-25T05:58:57;5.40;99.90
17619;DHT22;8928;51.678;6.074;2023-04-25T06:01:44;5.60;99.90
17619;DHT22;8928;51.678;6.074;2023-04-25T06:04:32;5.90;99.90
17619;DHT22;8928;51.678;6.074;2023-04-25T06:07:20;6.10;99.90
17619;DHT22;8928;51.678;6.074;2023-04-25T06:10:08;6.20;99.90
17619;DHT22;8928;51.678;6.074;2023-04-25T06:12:55;6.40;99.90
17619;DHT22;8928;51.678;6.074;2023-04-25T06:15:42;6.60;99.90
17619;DHT22;8928;51.678;6.074;2023-04-25T06:18:29;6.60;99.90
17619;DHT22;8928;51.678;6.074;2023-04-25T06:21:17;6.80;99.90
17619;DHT22;8928;51.678;6.074;2023-04-25T06:24:05;6.80;99.90
17619;DHT22;8928;51.678;6.074;2023-04-25T06:26:52;7.00;99.90
17619;DHT22;8928;51.678;6.074;2023-04-25T06:29:39;7.00;99.90
17619;DHT22;8928;51.678;6.074;2023-04-25T06:32:26;7.00;99.90
17619;DHT22;8928;51.678;6.074;2023-04-25T06:35:15;6.90;99.90
17619;DHT22;8928;51.678;6.074;2023-04-25T06:38:02;6.90;99.90
17619;DHT22;8928;51.678;6.074;2023-04-25T06:40:51;7.00;99.90
17619;DHT22;8928;51.678;6.074;2023-04-25T06:43:38;7.10;99.90
17619;DHT22;8928;51.678;6.074;2023-04-25T06:46:25;7.10;99.90
17619;DHT22;8928;51.678;6.074;2023-04-25T06:49:12;7.20;99.90
17619;DHT22;8928;51.678;6.074;2023-04-25T06:51:59;7.20;99.90
17619;DHT22;8928;51.678;6.074;2023-04-25T06:54:46;7.20;99.90
17619;DHT22;8928;51.678;6.074;2023-04-25T06:57:34;7.20;99.90
17619;DHT22;8928;51.678;6.074;2023-04-25T07:00:21;7.20;99.90
17619;DHT22;8928;51.678;6.074;2023-04-25T07:03:08;7.20;99.90
17619;DHT22;8928;51.678;6.074;2023-04-25T07:05:56;7.50;99.90
17619;DHT22;8928;51.678;6.074;2023-04-25T07:08:43;7.70;99.90
17619;DHT22;8928;51.678;6.074;2023-04-25T07:11:30;7.90;99.90
17619;DHT22;8928;51.678;6.074;2023-04-25T07:14:18;7.80;99.90
17619;DHT22;8928;51.678;6.074;2023-04-25T07:17:05;7.80;99.90
17619;DHT22;8928;51.678;6.074;2023-04-25T07:19:52;8.00;99.90
17619;DHT22;8928;51.678;6.074;2023-04-25T07:22:40;8.00;99.90
17619;DHT22;8928;51.678;6.074;2023-04-25T07:25:27;7.90;99.90
17619;DHT22;8928;51.678;6.074;2023-04-25T07:28:14;7.90;99.90
17619;DHT22;8928;51.678;6.074;2023-04-25T07:31:02;8.00;99.90
17619;DHT22;8928;51.678;6.074;2023-04-25T07:33:49;8.20;99.90
17619;DHT22;8928;51.678;6.074;2023-04-25T07:36:36;8.30;99.90
17619;DHT22;8928;51.678;6.074;2023-04-25T07:39:23;8.20;99.90
17619;DHT22;8928;51.678;6.074;2023-04-25T07:42:11;8.30;99.90
17619;DHT22;8928;51.678;6.074;2023-04-25T07:44:58;8.50;99.90
17619;DHT22;8928;51.678;6.074;2023-04-25T07:47:46;8.60;99.90
17619;DHT22;8928;51.678;6.074;2023-04-25T07:50:33;8.60;99.90
17619;DHT22;8928;51.678;6.074;2023-04-25T07:53:20;8.90;99.90
17619;DHT22;8928;51.678;6.074;2023-04-25T07:56:07;8.90;99.90
17619;DHT22;8928;51.678;6.074;2023-04-25T07:58:54;9.10;99.90
17619;DHT22;8928;51.678;6.074;2023-04-25T08:01:41;9.20;99.90
17619;DHT22;8928;51.678;6.074;2023-04-25T08:04:30;9.30;99.90
17619;DHT22;8928;51.678;6.074;2023-04-25T08:07:17;9.20;99.90
17619;DHT22;8928;51.678;6.074;2023-04-25T08:10:05;9.20;99.90
17619;DHT22;8928;51.678;6.074;2023-04-25T08:12:52;9.10;99.90
17619;DHT22;8928;51.678;6.074;2023-04-25T08:15:39;8.80;99.90
17619;DHT22;8928;51.678;6.074;2023-04-25T08:18:27;8.70;99.90
17619;DHT22;8928;51.678;6.074;2023-04-25T08:21:15;8.60;99.90
17619;DHT22;8928;51.678;6.074;2023-04-25T08:24:02;8.80;99.90
17619;DHT22;8928;51.678;6.074;2023-04-25T08:26:49;8.80;99.90
17619;DHT22;8928;51.678;6.074;2023-04-25T08:29:36;8.80;99.90
17619;DHT22;8928;51.678;6.074;2023-04-25T08:32:23;9.00;99.90
17619;DHT22;8928;51.678;6.074;2023-04-25T08:35:11;9.20;99.90
17619;DHT22;8928;51.678;6.074;2023-04-25T08:37:59;9.50;99.90
17619;DHT22;8928;51.678;6.074;2023-04-25T08:40:49;9.40;99.90
17619;DHT22;8928;51.678;6.074;2023-04-25T08:43:37;9.40;99.90
17619;DHT22;8928;51.678;6.074;2023-04-25T08:46:27;9.80;99.90
17619;DHT22;8928;51.678;6.074;2023-04-25T08:49:17;10.30;99.90
17619;DHT22;8928;51.678;6.074;2023-04-25T08:52:05;10.60;99.90
17619;DHT22;8928;51.678;6.074;2023-04-25T08:54:54;10.70;99.90
17619;DHT22;8928;51.678;6.074;2023-04-25T08:57:42;10.50;99.90
17619;DHT22;8928;51.678;6.074;2023-04-25T09:00:29;10.10;99.90
17619;DHT22;8928;51.678;6.074;2023-04-25T09:03:17;9.80;99.90
17619;DHT22;8928;51.678;6.074;2023-04-25T09:06:04;9.30;99.90
17619;DHT22;8928;51.678;6.074;2023-04-25T09:08:51;9.40;99.90
17619;DHT22;8928;51.678;6.074;2023-04-25T09:11:41;9.80;99.90
17619;DHT22;8928;51.678;6.074;2023-04-25T09:14:28;10.20;99.90
17619;DHT22;8928;51.678;6.074;2023-04-25T09:17:15;10.70;99.90
17619;DHT22;8928;51.678;6.074;2023-04-25T09:20:09;10.80;99.90
17619;DHT22;8928;51.678;6.074;2023-04-25T09:23:03;10.70;99.90
17619;DHT22;8928;51.678;6.074;2023-04-25T09:25:52;11.10;99.90
17619;DHT22;8928;51.678;6.074;2023-04-25T09:28:41;11.20;99.90
17619;DHT22;8928;51.678;6.074;2023-04-25T09:31:28;11.10;99.90
17619;DHT22;8928;51.678;6.074;2023-04-25T09:34:16;11.30;99.90
17619;DHT22;8928;51.678;6.074;2023-04-25T09:37:03;11.70;99.90
17619;DHT22;8928;51.678;6.074;2023-04-25T09:39:52;11.40;99.90
17619;DHT22;8928;51.678;6.074;2023-04-25T09:42:41;11.10;99.90
17619;DHT22;8928;51.678;6.074;2023-04-25T09:45:30;10.80;99.90
17619;DHT22;8928;51.678;6.074;2023-04-25T09:48:19;11.00;99.90
17619;DHT22;8928;51.678;6.074;2023-04-25T09:51:07;10.80;99.90
17619;DHT22;8928;51.678;6.074;2023-04-25T09:53:55;10.70;99.90
17619;DHT22;8928;51.678;6.074;2023-04-25T09:56:42;10.60;99.90
17619;DHT22;8928;51.678;6.074;2023-04-25T09:59:31;10.60;99.90
17619;DHT22;8928;51.678;6.074;2023-04-25T10:02:23;10.80;99.90
17619;DHT22;8928;51.678;6.074;2023-04-25T10:05:11;11.20;99.90
17619;DHT22;8928;51.678;6.074;2023-04-25T10:07:59;11.80;99.90
17619;DHT22;8928;51.678;6.074;2023-04-25T10:10:48;12.30;99.90
17619;DHT22;8928;51.678;6.074;2023-04-25T10:13:36;13.00;99.90
17619;DHT22;8928;51.678;6.074;2023-04-25T10:16:24;12.70;99.90
17619;DHT22;8928;51.678;6.074;2023-04-25T10:19:13;11.90;99.90
17619;DHT22;8928;51.678;6.074;2023-04-25T10:22:08;11.30;99.90
17619;DHT22;8928;51.678;6.074;2023-04-25T10:24:55;11.10;99.90
17619;DHT22;8928;51.678;6.074;2023-04-25T10:27:43;10.90;99.90
17619;DHT22;8928;51.678;6.074;2023-04-25T10:30:31;10.60;99.90
17619;DHT22;8928;51.678;6.074;2023-04-25T10:33:18;10.50;99.90
17619;DHT22;8928;51.678;6.074;2023-04-25T10:36:11;10.40;99.90
17619;DHT22;8928;51.678;6.074;2023-04-25T10:39:03;10.90;99.90
17619;DHT22;8928;51.678;6.074;2023-04-25T10:41:53;11.40;99.90
17619;DHT22;8928;51.678;6.074;2023-04-25T10:45:01;11.20;99.90
17619;DHT22;8928;51.678;6.074;2023-04-25T10:47:48;11.50;99.90
17619;DHT22;8928;51.678;6.074;2023-04-25T10:50:37;12.30;99.90
17619;DHT22;8928;51.678;6.074;2023-04-25T10:53:30;13.10;99.90
17619;DHT22;8928;51.678;6.074;2023-04-25T10:56:20;13.00;99.90
17619;DHT22;8928;51.678;6.074;2023-04-25T10:59:10;12.90;99.90
17619;DHT22;8928;51.678;6.074;2023-04-25T11:01:57;12.20;99.90
17619;DHT22;8928;51.678;6.074;2023-04-25T11:04:44;11.70;99.90
17619;DHT22;8928;51.678;6.074;2023-04-25T11:07:34;11.40;99.90
17619;DHT22;8928;51.678;6.074;2023-04-25T11:10:27;11.30;99.90
17619;DHT22;8928;51.678;6.074;2023-04-25T11:13:14;11.50;99.90
17619;DHT22;8928;51.678;6.074;2023-04-25T11:16:01;11.50;99.90
17619;DHT22;8928;51.678;6.074;2023-04-25T11:18:48;11.70;99.90
17619;DHT22;8928;51.678;6.074;2023-04-25T11:21:35;11.70;99.90
17619;DHT22;8928;51.678;6.074;2023-04-25T11:24:25;11.70;99.90
17619;DHT22;8928;51.678;6.074;2023-04-25T11:27:15;11.80;99.90
17619;DHT22;8928;51.678;6.074;2023-04-25T11:30:13;12.10;99.90
17619;DHT22;8928;51.678;6.074;2023-04-25T11:33:01;12.60;99.90
17619;DHT22;8928;51.678;6.074;2023-04-25T11:35:49;12.80;99.90
17619;DHT22;8928;51.678;6.074;2023-04-25T11:38:36;13.80;99.90
17619;DHT22;8928;51.678;6.074;2023-04-25T11:41:23;13.90;99.90
17619;DHT22;8928;51.678;6.074;2023-04-25T11:44:12;13.60;99.90
17619;DHT22;8928;51.678;6.074;2023-04-25T11:47:02;13.20;99.90
17619;DHT22;8928;51.678;6.074;2023-04-25T11:49:49;13.30;99.90
17619;DHT22;8928;51.678;6.074;2023-04-25T11:52:40;13.00;99.90
17619;DHT22;8928;51.678;6.074;2023-04-25T11:55:30;13.20;99.90
17619;DHT22;8928;51.678;6.074;2023-04-25T11:58:17;13.70;99.90
17619;DHT22;8928;51.678;6.074;2023-04-25T12:01:06;14.20;99.90
17619;DHT22;8928;51.678;6.074;2023-04-25T12:03:53;14.00;99.90
17619;DHT22;8928;51.678;6.074;2023-04-25T12:06:41;12.80;99.90
17619;DHT22;8928;51.678;6.074;2023-04-25T12:09:30;12.00;99.90
17619;DHT22;8928;51.678;6.074;2023-04-25T12:12:18;11.80;99.90
17619;DHT22;8928;51.678;6.074;2023-04-25T12:15:09;12.40;99.90
17619;DHT22;8928;51.678;6.074;2023-04-25T12:17:58;13.10;99.90
17619;DHT22;8928;51.678;6.074;2023-04-25T12:20:45;13.20;99.90
17619;DHT22;8928;51.678;6.074;2023-04-25T12:23:32;13.50;99.90
17619;DHT22;8928;51.678;6.074;2023-04-25T12:26:19;14.30;99.90
17619;DHT22;8928;51.678;6.074;2023-04-25T12:29:15;15.10;99.90
17619;DHT22;8928;51.678;6.074;2023-04-25T12:32:03;15.60;99.90
17619;DHT22;8928;51.678;6.074;2023-04-25T12:34:51;15.40;99.90
17619;DHT22;8928;51.678;6.074;2023-04-25T12:37:38;15.00;99.90
17619;DHT22;8928;51.678;6.074;2023-04-25T12:40:25;15.40;99.90
17619;DHT22;8928;51.678;6.074;2023-04-25T12:43:12;16.20;99.90
17619;DHT22;8928;51.678;6.074;2023-04-25T12:46:00;16.30;99.90
17619;DHT22;8928;51.678;6.074;2023-04-25T12:48:47;16.00;99.90
17619;DHT22;8928;51.678;6.074;2023-04-25T12:51:35;16.30;99.90
17619;DHT22;8928;51.678;6.074;2023-04-25T12:54:22;16.30;99.90
17619;DHT22;8928;51.678;6.074;2023-04-25T12:57:10;14.70;99.90
17619;DHT22;8928;51.678;6.074;2023-04-25T12:59:57;13.40;99.90
17619;DHT22;8928;51.678;6.074;2023-04-25T13:02:44;13.50;99.90
17619;DHT22;8928;51.678;6.074;2023-04-25T13:05:32;14.60;99.90
17619;DHT22;8928;51.678;6.074;2023-04-25T13:08:20;14.60;99.90
17619;DHT22;8928;51.678;6.074;2023-04-25T13:11:07;13.40;99.90
17619;DHT22;8928;51.678;6.074;2023-04-25T13:13:55;12.70;99.90
17619;DHT22;8928;51.678;6.074;2023-04-25T13:16:42;12.30;99.90
17619;DHT22;8928;51.678;6.074;2023-04-25T13:19:29;11.90;99.90
17619;DHT22;8928;51.678;6.074;2023-04-25T13:22:17;11.60;99.90
17619;DHT22;8928;51.678;6.074;2023-04-25T13:25:07;11.30;99.90
17619;DHT22;8928;51.678;6.074;2023-04-25T13:27:54;10.90;99.90
17619;DHT22;8928;51.678;6.074;2023-04-25T13:30:42;11.00;99.90
17619;DHT22;8928;51.678;6.074;2023-04-25T13:33:29;11.80;99.90
17619;DHT22;8928;51.678;6.074;2023-04-25T13:36:16;13.90;99.90
17619;DHT22;8928;51.678;6.074;2023-04-25T13:39:03;16.00;99.90
17619;DHT22;8928;51.678;6.074;2023-04-25T13:41:52;15.90;99.90
17619;DHT22;8928;51.678;6.074;2023-04-25T13:44:39;14.60;99.90
17619;DHT22;8928;51.678;6.074;2023-04-25T13:47:27;13.00;99.90
17619;DHT22;8928;51.678;6.074;2023-04-25T13:50:14;12.60;99.90
17619;DHT22;8928;51.678;6.074;2023-04-25T13:53:01;12.20;99.90
17619;DHT22;8928;51.678;6.074;2023-04-25T13:55:49;13.90;99.90
17619;DHT22;8928;51.678;6.074;2023-04-25T13:58:37;16.10;99.90
17619;DHT22;8928;51.678;6.074;2023-04-25T14:01:24;17.20;99.90
17619;DHT22;8928;51.678;6.074;2023-04-25T14:04:12;18.50;99.90
17619;DHT22;8928;51.678;6.074;2023-04-25T14:06:59;17.80;99.20
17619;DHT22;8928;51.678;6.074;2023-04-25T14:09:46;18.00;99.00
17619;DHT22;8928;51.678;6.074;2023-04-25T14:12:33;19.20;96.90
17619;DHT22;8928;51.678;6.074;2023-04-25T14:15:22;19.80;94.20
17619;DHT22;8928;51.678;6.074;2023-04-25T14:18:09;20.30;86.00
17619;DHT22;8928;51.678;6.074;2023-04-25T14:20:56;20.70;86.00
17619;DHT22;8928;51.678;6.074;2023-04-25T14:23:43;19.50;78.90
17619;DHT22;8928;51.678;6.074;2023-04-25T14:26:31;19.60;85.70
17619;DHT22;8928;51.678;6.074;2023-04-25T14:29:18;18.60;79.00
17619;DHT22;8928;51.678;6.074;2023-04-25T14:32:06;17.50;85.80
17619;DHT22;8928;51.678;6.074;2023-04-25T14:34:53;15.90;86.60
17619;DHT22;8928;51.678;6.074;2023-04-25T14:37:40;14.60;90.40
17619;DHT22;8928;51.678;6.074;2023-04-25T14:40:27;14.90;92.40
17619;DHT22;8928;51.678;6.074;2023-04-25T14:43:15;15.60;94.20
17619;DHT22;8928;51.678;6.074;2023-04-25T14:46:02;17.70;90.70
17619;DHT22;8928;51.678;6.074;2023-04-25T14:48:51;19.20;85.90
17619;DHT22;8928;51.678;6.074;2023-04-25T14:51:38;19.90;80.70
17619;DHT22;8928;51.678;6.074;2023-04-25T14:54:25;19.90;80.30
17619;DHT22;8928;51.678;6.074;2023-04-25T14:57:13;21.30;78.70
17619;DHT22;8928;51.678;6.074;2023-04-25T15:00:01;21.40;76.70
17619;DHT22;8928;51.678;6.074;2023-04-25T15:02:50;21.40;68.40
17619;DHT22;8928;51.678;6.074;2023-04-25T15:05:39;22.40;71.50
17619;DHT22;8928;51.678;6.074;2023-04-25T15:08:26;21.80;63.40
17619;DHT22;8928;51.678;6.074;2023-04-25T15:11:13;21.50;63.90
17619;DHT22;8928;51.678;6.074;2023-04-25T15:14:00;21.60;61.70
17619;DHT22;8928;51.678;6.074;2023-04-25T15:16:47;22.10;60.90
17619;DHT22;8928;51.678;6.074;2023-04-25T15:19:34;22.50;61.80
17619;DHT22;8928;51.678;6.074;2023-04-25T15:22:23;23.10;63.00
17619;DHT22;8928;51.678;6.074;2023-04-25T15:25:10;23.10;59.00
17619;DHT22;8928;51.678;6.074;2023-04-25T15:27:58;23.00;58.40
17619;DHT22;8928;51.678;6.074;2023-04-25T15:30:45;19.20;58.50
17619;DHT22;8928;51.678;6.074;2023-04-25T15:33:32;16.50;64.10
17619;DHT22;8928;51.678;6.074;2023-04-25T15:36:19;15.10;68.70
17619;DHT22;8928;51.678;6.074;2023-04-25T15:39:08;15.60;70.60
17619;DHT22;8928;51.678;6.074;2023-04-25T15:41:55;16.60;67.20
17619;DHT22;8928;51.678;6.074;2023-04-25T15:44:43;17.50;68.60
17619;DHT22;8928;51.678;6.074;2023-04-25T15:47:30;16.20;69.80
17619;DHT22;8928;51.678;6.074;2023-04-25T15:50:18;15.70;69.10
17619;DHT22;8928;51.678;6.074;2023-04-25T15:53:05;15.60;68.50
17619;DHT22;8928;51.678;6.074;2023-04-25T15:55:54;16.80;68.80
17619;DHT22;8928;51.678;6.074;2023-04-25T15:58:41;17.80;66.10
17619;DHT22;8928;51.678;6.074;2023-04-25T16:01:28;19.20;68.20
17619;DHT22;8928;51.678;6.074;2023-04-25T16:04:15;17.50;65.30
17619;DHT22;8928;51.678;6.074;2023-04-25T16:07:03;15.50;70.40
17619;DHT22;8928;51.678;6.074;2023-04-25T16:09:50;14.30;73.80
17619;DHT22;8928;51.678;6.074;2023-04-25T16:12:39;13.40;76.20
17619;DHT22;8928;51.678;6.074;2023-04-25T16:15:26;12.40;76.50
17619;DHT22;8928;51.678;6.074;2023-04-25T16:18:13;12.00;81.70
17619;DHT22;8928;51.678;6.074;2023-04-25T16:21:00;11.90;84.90
17619;DHT22;8928;51.678;6.074;2023-04-25T16:23:47;11.70;83.30
17619;DHT22;8928;51.678;6.074;2023-04-25T16:26:34;11.50;86.20
17619;DHT22;8928;51.678;6.074;2023-04-25T16:29:22;11.30;89.50
17619;DHT22;8928;51.678;6.074;2023-04-25T16:32:10;11.20;91.10
17619;DHT22;8928;51.678;6.074;2023-04-25T16:34:58;10.80;91.40
17619;DHT22;8928;51.678;6.074;2023-04-25T16:37:45;10.60;93.70
17619;DHT22;8928;51.678;6.074;2023-04-25T16:40:32;10.40;94.90
17619;DHT22;8928;51.678;6.074;2023-04-25T16:43:19;10.30;96.60
17619;DHT22;8928;51.678;6.074;2023-04-25T16:46:07;10.20;98.30
17619;DHT22;8928;51.678;6.074;2023-04-25T16:48:54;10.20;99.90
17619;DHT22;8928;51.678;6.074;2023-04-25T16:51:42;10.50;99.90
17619;DHT22;8928;51.678;6.074;2023-04-25T16:54:29;10.50;99.90
17619;DHT22;8928;51.678;6.074;2023-04-25T16:57:16;10.50;99.90
17619;DHT22;8928;51.678;6.074;2023-04-25T17:00:03;10.50;99.90
17619;DHT22;8928;51.678;6.074;2023-04-25T17:02:52;10.50;99.90
17619;DHT22;8928;51.678;6.074;2023-04-25T17:05:39;10.40;99.90
17619;DHT22;8928;51.678;6.074;2023-04-25T17:08:27;10.30;99.90
17619;DHT22;8928;51.678;6.074;2023-04-25T17:11:14;10.00;99.90
17619;DHT22;8928;51.678;6.074;2023-04-25T17:14:01;9.90;99.90
17619;DHT22;8928;51.678;6.074;2023-04-25T17:16:48;9.80;99.90
17619;DHT22;8928;51.678;6.074;2023-04-25T17:19:37;9.60;99.90
17619;DHT22;8928;51.678;6.074;2023-04-25T17:22:24;9.40;99.90
17619;DHT22;8928;51.678;6.074;2023-04-25T17:25:11;9.40;99.90
17619;DHT22;8928;51.678;6.074;2023-04-25T17:27:58;9.30;99.90
17619;DHT22;8928;51.678;6.074;2023-04-25T17:30:45;9.20;99.90
17619;DHT22;8928;51.678;6.074;2023-04-25T17:33:32;9.00;99.90
17619;DHT22;8928;51.678;6.074;2023-04-25T17:36:20;9.00;99.90
17619;DHT22;8928;51.678;6.074;2023-04-25T17:39:08;8.90;99.90
17619;DHT22;8928;51.678;6.074;2023-04-25T17:41:55;9.00;99.90
17619;DHT22;8928;51.678;6.074;2023-04-25T17:44:44;8.90;99.90
17619;DHT22;8928;51.678;6.074;2023-04-25T17:47:31;8.90;99.90
17619;DHT22;8928;51.678;6.074;2023-04-25T17:50:18;9.00;99.90
17619;DHT22;8928;51.678;6.074;2023-04-25T17:53:06;9.10;99.90
17619;DHT22;8928;51.678;6.074;2023-04-25T17:55:53;9.40;99.90
17619;DHT22;8928;51.678;6.074;2023-04-25T17:58:41;9.50;99.90
17619;DHT22;8928;51.678;6.074;2023-04-25T18:01:28;9.30;99.90
17619;DHT22;8928;51.678;6.074;2023-04-25T18:04:15;9.30;99.90
17619;DHT22;8928;51.678;6.074;2023-04-25T18:07:03;9.20;99.90